createdAt,value
2023-03-14T00:02:31.999Z,12.84
2023-03-14T00:07:36.145Z,12.87
2023-03-14T00:12:39.073Z,12.83
2023-03-14T00:17:45.809Z,12.81
2023-03-14T00:22:48.415Z,12.83
2023-03-14T00:27:52.511Z,12.60
2023-03-14T00:32:56.518Z,12.54
2023-03-14T00:37:59.142Z,12.46
2023-03-14T00:43:01.737Z,12.43
2023-03-14T00:48:05.677Z,12.36
2023-03-14T00:53:08.242Z,12.29
2023-03-14T00:58:12.009Z,12.33
2023-03-14T01:03:17.278Z,12.12
2023-03-14T01:08:19.939Z,11.96
2023-03-14T01:13:22.518Z,12.21
2023-03-14T01:18:26.936Z,12.25
2023-03-14T01:23:29.638Z,12.13
2023-03-14T01:28:32.446Z,12.10
2023-03-14T01:33:37.160Z,11.77
2023-03-14T01:38:41.540Z,11.88
2023-03-14T01:43:47.175Z,11.84
2023-03-14T01:48:58.960Z,11.84
2023-03-14T01:54:09.369Z,11.76
2023-03-14T01:59:12.990Z,11.70
2023-03-14T02:04:19.524Z,11.52
2023-03-14T02:09:22.985Z,11.01
2023-03-14T02:14:32.583Z,11.15
2023-03-14T02:20:09.851Z,11.65
2023-03-14T02:25:23.594Z,11.19
2023-03-14T02:30:30.555Z,11.63
2023-03-14T02:35:37.252Z,11.36
2023-03-14T02:40:40.053Z,9.90
2023-03-14T02:45:47.443Z,11.17
2023-03-14T02:50:56.936Z,11.42
2023-03-14T02:56:00.160Z,10.35
2023-03-14T03:01:05.784Z,11.74
2023-03-14T03:06:09.278Z,11.74
2023-03-14T03:11:12.032Z,11.72
2023-03-14T03:16:16.375Z,11.83
2023-03-14T03:21:26.433Z,11.38
2023-03-14T03:26:29.444Z,11.36
2023-03-14T03:31:33.744Z,11.40
2023-03-14T03:36:37.211Z,11.58
2023-03-14T03:41:39.986Z,11.80
2023-03-14T03:46:50.317Z,10.68
2023-03-14T03:51:54.696Z,11.34
2023-03-14T03:56:57.785Z,11.73
2023-03-14T04:02:02.106Z,11.86
2023-03-14T04:07:08.112Z,11.58
2023-03-14T04:12:13.478Z,11.83
2023-03-14T04:17:34.260Z,11.82
2023-03-14T04:22:37.111Z,11.58
2023-03-14T04:27:39.938Z,11.39
2023-03-14T04:32:58.828Z,11.61
2023-03-14T04:38:03.785Z,11.48
2023-03-14T04:43:12.205Z,11.46
2023-03-14T04:48:25.908Z,11.40
2023-03-14T04:53:36.000Z,10.03
2023-03-14T04:58:42.292Z,10.34
2023-03-14T05:03:46.602Z,10.69
2023-03-14T05:09:21.408Z,9.99
2023-03-14T05:14:36.764Z,10.75
2023-03-14T05:20:02.066Z,10.23
2023-03-14T05:25:28.017Z,10.69
2023-03-14T05:30:53.887Z,10.79
2023-03-14T05:36:08.184Z,10.85
2023-03-14T05:41:32.498Z,10.86
2023-03-14T05:46:48.778Z,10.39
2023-03-14T05:52:11.371Z,10.91
2023-03-14T05:57:23.688Z,10.88
2023-03-14T06:02:41.040Z,10.50
2023-03-14T06:07:58.624Z,10.92
2023-03-14T06:13:04.902Z,10.96
2023-03-14T06:18:10.406Z,10.58
2023-03-14T06:23:18.227Z,10.61
2023-03-14T06:28:25.887Z,10.74
2023-03-14T06:33:29.800Z,9.83
2023-03-14T06:38:34.331Z,10.29
2023-03-14T06:43:37.433Z,11.13
2023-03-14T06:48:42.186Z,11.11
2023-03-14T07:30:36.920Z,11.30
2023-03-14T07:35:48.253Z,11.22
2023-03-14T07:40:52.806Z,11.16
2023-03-14T07:45:59.737Z,11.36
2023-03-14T07:51:02.753Z,11.46
2023-03-14T07:56:05.679Z,11.22
2023-03-14T08:01:09.644Z,11.31
2023-03-14T08:06:12.268Z,11.32
2023-03-14T08:11:14.899Z,11.60
2023-03-14T08:16:19.149Z,11.62
2023-03-14T08:21:21.951Z,11.70
2023-03-14T08:26:24.578Z,11.00
2023-03-14T08:31:28.709Z,11.20
2023-03-14T08:36:32.105Z,11.47
2023-03-14T08:41:40.871Z,11.40
2023-03-14T08:46:44.827Z,11.23
2023-03-14T08:51:47.453Z,11.30
2023-03-14T08:56:50.063Z,11.39
2023-03-14T09:01:54.133Z,10.82
2023-03-14T09:06:58.830Z,10.51
2023-03-14T09:12:01.496Z,10.49
2023-03-14T09:17:06.761Z,10.34
2023-03-14T09:22:09.355Z,10.27
2023-03-14T09:27:12.009Z,10.27
2023-03-14T09:32:15.954Z,10.68
2023-03-14T09:37:20.945Z,9.76
2023-03-14T09:42:28.693Z,10.04
2023-03-14T09:47:34.454Z,9.99
2023-03-14T09:52:42.489Z,10.11
2023-03-14T09:57:48.360Z,10.15
2023-03-14T10:02:56.469Z,10.29
2023-03-14T10:07:59.293Z,10.02
2023-03-14T10:13:12.868Z,10.28
2023-03-14T10:18:17.175Z,10.08
2023-03-14T10:23:25.496Z,9.85
2023-03-14T10:28:29.895Z,9.87
2023-03-14T10:33:37.582Z,9.81
2023-03-14T10:38:40.188Z,9.68
2023-03-14T10:43:44.433Z,9.18
2023-03-14T10:48:50.521Z,8.91
2023-03-14T10:53:59.230Z,8.98
2023-03-14T10:59:02.372Z,9.14
2023-03-14T11:04:28.073Z,9.30
2023-03-14T11:09:36.869Z,8.92
2023-03-14T11:14:46.133Z,9.13
2023-03-14T11:20:02.095Z,9.06
2023-03-14T11:25:20.020Z,9.32
2023-03-14T11:30:31.797Z,9.07
2023-03-14T11:35:41.990Z,8.91
2023-03-14T11:40:46.621Z,9.05
2023-03-14T11:45:53.109Z,9.36
2023-03-14T11:50:59.676Z,9.56
2023-03-14T11:56:02.812Z,9.78
2023-03-14T12:01:14.125Z,10.01
2023-03-14T12:06:24.104Z,10.05
2023-03-14T12:11:35.893Z,10.05
2023-03-14T12:16:41.585Z,9.62
2023-03-14T12:21:53.013Z,9.24
2023-03-14T12:26:57.656Z,9.24
2023-03-14T12:32:23.870Z,9.13
2023-03-14T12:37:36.777Z,9.26
2023-03-14T12:42:47.195Z,9.45
2023-03-14T12:47:56.284Z,9.65
2023-03-14T12:53:38.490Z,9.80
2023-03-14T12:58:46.014Z,9.52
2023-03-14T13:03:54.524Z,9.10
2023-03-14T13:08:59.639Z,9.15
2023-03-14T13:14:03.518Z,8.87
2023-03-14T13:19:17.068Z,8.98
2023-03-14T13:24:25.486Z,9.10
2023-03-14T13:29:32.147Z,9.36
2023-03-14T13:34:36.485Z,9.91
2023-03-14T13:39:42.668Z,10.20
2023-03-14T13:44:46.846Z,10.23
2023-03-14T13:49:51.829Z,10.36
2023-03-14T13:54:59.498Z,10.44
2023-03-14T14:00:07.850Z,10.48
2023-03-14T14:05:12.953Z,10.56
2023-03-14T14:10:17.331Z,10.57
2023-03-14T14:15:24.212Z,10.33
2023-03-14T14:20:33.370Z,10.39
2023-03-14T14:25:42.158Z,9.67
2023-03-14T14:30:45.771Z,10.29
2023-03-14T14:35:56.038Z,10.34
2023-03-14T14:41:04.483Z,10.44
2023-03-14T14:46:09.907Z,10.27
2023-03-14T14:51:13.269Z,10.15
2023-03-14T14:56:23.252Z,10.12
2023-03-14T15:01:27.626Z,10.13
2023-03-14T15:06:31.950Z,9.87
2023-03-14T15:11:35.866Z,9.66
2023-03-14T15:16:38.569Z,9.64
2023-03-14T15:21:41.426Z,9.67
2023-03-14T15:26:45.940Z,9.69
2023-03-14T15:31:48.605Z,9.49
2023-03-14T15:36:51.212Z,9.35
2023-03-14T15:41:55.109Z,9.56
2023-03-14T15:46:57.697Z,9.44
2023-03-14T15:52:00.443Z,9.27
2023-03-14T15:57:04.702Z,9.32
2023-03-14T16:02:07.502Z,9.30
2023-03-14T16:07:10.064Z,9.30
2023-03-14T16:12:14.025Z,9.27
2023-03-14T16:17:16.590Z,9.19
2023-03-14T16:22:19.760Z,8.93
2023-03-14T16:27:23.694Z,8.98
2023-03-14T16:32:26.752Z,8.93
2023-03-14T16:37:29.357Z,8.89
2023-03-14T16:42:34.830Z,8.59
2023-03-14T16:47:37.399Z,8.55
2023-03-14T16:52:39.979Z,8.69
2023-03-14T16:57:43.874Z,8.45
2023-03-14T17:02:46.733Z,8.35
2023-03-14T17:07:49.326Z,8.23
2023-03-14T17:12:53.309Z,8.32
2023-03-14T17:17:55.868Z,8.21
2023-03-14T17:22:58.451Z,8.24
2023-03-14T17:28:02.432Z,8.37
2023-03-14T17:33:05.853Z,8.33
2023-03-14T17:38:08.805Z,8.21
2023-03-14T17:43:12.733Z,8.18
2023-03-14T18:38:55.349Z,8.08
2023-03-14T18:43:59.271Z,8.16
2023-03-14T18:49:04.290Z,8.14
2023-03-14T18:54:10.601Z,8.12
2023-03-14T18:59:15.007Z,7.72
2023-03-14T19:04:18.497Z,7.83
2023-03-14T19:09:21.414Z,8.07
2023-03-14T19:14:25.390Z,7.84
2023-03-14T19:19:28.039Z,7.55
2023-03-14T19:24:30.601Z,7.84
2023-03-14T19:29:39.437Z,7.73
2023-03-14T19:34:44.063Z,7.90
2023-03-14T19:39:47.223Z,7.77
2023-03-14T19:44:53.345Z,7.90
2023-03-14T19:49:58.067Z,7.72
2023-03-14T19:55:02.070Z,7.52
2023-03-14T20:00:11.787Z,7.62
2023-03-14T20:05:14.971Z,7.56
2023-03-14T20:10:19.777Z,6.99
2023-03-14T20:15:24.409Z,7.37
2023-03-14T20:20:28.957Z,7.37
2023-03-14T20:25:31.862Z,7.36
2023-03-14T20:30:35.922Z,6.71
2023-03-14T20:35:38.956Z,7.19
2023-03-14T20:40:42.190Z,6.96
2023-03-14T20:45:52.847Z,6.14
2023-03-14T20:50:56.396Z,6.55
2023-03-14T20:55:59.202Z,6.64
2023-03-14T21:01:03.876Z,6.37
2023-03-14T21:06:10.329Z,6.26
2023-03-14T21:11:13.280Z,5.52
2023-03-14T21:16:17.748Z,5.56
2023-03-14T21:21:22.064Z,5.02
2023-03-14T21:26:25.043Z,5.58
2023-03-14T21:31:29.282Z,5.47
2023-03-14T21:36:32.577Z,5.44
2023-03-14T21:41:35.155Z,4.98
2023-03-14T21:46:39.107Z,5.11
2023-03-14T21:51:45.828Z,5.32
2023-03-14T21:56:48.595Z,5.73
2023-03-14T22:01:53.530Z,5.82
2023-03-14T22:06:56.585Z,5.97
2023-03-14T22:11:59.574Z,5.97
2023-03-14T22:17:04.121Z,5.80
2023-03-14T22:22:06.874Z,5.85
2023-03-14T22:27:11.568Z,5.83
2023-03-14T22:32:17.025Z,5.67
2023-03-14T22:37:19.625Z,5.34
2023-03-14T22:42:22.786Z,5.51
2023-03-14T22:47:27.666Z,5.61
2023-03-14T22:52:32.158Z,5.65
2023-03-14T22:57:34.854Z,5.58
2023-03-14T23:02:38.850Z,5.41
2023-03-14T23:07:41.600Z,5.60
2023-03-14T23:12:45.133Z,5.86
2023-03-14T23:17:49.125Z,6.00
2023-03-14T23:22:52.216Z,5.49
2023-03-14T23:27:54.809Z,5.91
2023-03-14T23:32:58.885Z,6.06
2023-03-14T23:38:02.345Z,6.30
2023-03-14T23:43:06.210Z,6.30
2023-03-14T23:48:10.584Z,6.44
2023-03-14T23:53:13.754Z,6.56
2023-03-14T23:58:16.361Z,6.58
